createdAt,value
2023-03-22T00:06:03.258Z,5.3
2023-03-22T00:08:05.195Z,3.4
2023-03-22T00:10:07.166Z,3.4
2023-03-22T00:12:09.135Z,4.5
2023-03-22T00:14:14.350Z,3.3
2023-03-22T00:16:16.370Z,3.4
2023-03-22T00:24:24.251Z,4
2023-03-22T00:26:26.221Z,5
2023-03-22T00:30:33.420Z,4.9
2023-03-22T00:34:37.385Z,4.3
2023-03-22T00:38:43.464Z,3.9
2023-03-22T00:40:43.287Z,3.8
2023-03-22T00:42:48.494Z,4.3
2023-03-22T00:44:50.468Z,3.7
2023-03-22T00:46:52.470Z,3.5
2023-03-22T00:47:55.088Z,5.2
2023-03-22T00:49:57.032Z,3.8
2023-03-22T00:51:59.010Z,3.8
2023-03-22T00:56:06.189Z,3.1
2023-03-22T00:58:08.157Z,3.6
2023-03-22T01:00:10.091Z,3.7
2023-03-22T01:02:11.964Z,3.2
2023-03-22T01:04:13.952Z,2.6
2023-03-22T01:06:15.920Z,3
2023-03-22T01:08:17.923Z,3.4
2023-03-22T01:10:23.095Z,3.4
2023-03-22T01:12:25.092Z,2.3
2023-03-22T01:14:27.016Z,2.1
2023-03-22T01:16:29.036Z,2.3
2023-03-22T01:18:30.996Z,3.6
2023-03-22T01:20:32.981Z,2.1
2023-03-22T01:22:34.841Z,2.6
2023-03-22T01:24:40.050Z,3.2
2023-03-22T01:26:42.014Z,3.2
2023-03-22T01:28:44.001Z,2.3
2023-03-22T01:30:45.989Z,2.1
2023-03-22T01:32:47.916Z,2.2
2023-03-22T01:34:49.912Z,2.4
2023-03-22T01:40:59.049Z,2.3
2023-03-22T01:43:01.036Z,2.3
2023-03-22T01:49:33.680Z,2.6
2023-03-22T01:55:42.811Z,2.9
2023-03-22T01:57:44.775Z,2.3
2023-03-22T01:59:46.755Z,1.8
2023-03-22T02:03:50.699Z,2.5
2023-03-22T02:05:55.878Z,2.4
2023-03-22T02:07:57.896Z,2.6
2023-03-22T02:09:59.861Z,1.9
2023-03-22T02:12:01.828Z,2.6
2023-03-22T02:14:03.816Z,2.2
2023-03-22T02:16:05.812Z,1.6
2023-03-22T02:18:07.768Z,2.1
2023-03-22T02:20:12.959Z,2.2
2023-03-22T02:22:14.923Z,2.6
2023-03-22T02:24:16.908Z,1.9
2023-03-22T02:26:18.852Z,2.5
2023-03-22T02:28:20.815Z,2.6
2023-03-22T02:30:22.831Z,3.7
2023-03-22T02:32:24.784Z,2.8
2023-03-22T02:34:29.990Z,2.2
2023-03-22T02:38:33.984Z,2.5
2023-03-22T02:39:36.618Z,3.4
2023-03-22T02:47:47.838Z,3.1
2023-03-22T02:49:49.737Z,3.1
2023-03-22T02:51:51.748Z,3.1
2023-03-22T02:53:53.722Z,3.8
2023-03-22T02:57:57.637Z,4
2023-03-22T02:59:59.640Z,3.5
2023-03-22T03:02:04.894Z,5.2
2023-03-22T03:04:06.876Z,6.2
2023-03-22T03:06:08.823Z,5.8
2023-03-22T03:08:10.788Z,7.3
2023-03-22T03:12:14.743Z,7.8
2023-03-22T03:14:16.712Z,7.5
2023-03-22T03:16:21.901Z,8.4
2023-03-22T03:18:23.820Z,7.6
2023-03-22T03:20:25.799Z,9
2023-03-22T03:22:27.772Z,9
2023-03-22T03:24:31.306Z,9.1
2023-03-22T03:26:33.267Z,11.1
2023-03-22T03:28:35.225Z,9.2
2023-03-22T03:35:46.999Z,9.6
2023-03-22T03:37:48.955Z,8.4
2023-03-22T03:39:50.840Z,9.4
2023-03-22T03:41:52.821Z,9.3
2023-03-22T03:46:00.123Z,9
2023-03-22T03:48:01.984Z,7.2
2023-03-22T03:50:03.799Z,8.5
2023-03-22T03:52:05.853Z,9.3
2023-03-22T03:54:07.802Z,8.5
2023-03-22T03:56:09.787Z,9.1
2023-03-22T03:58:14.984Z,8.7
2023-03-22T04:00:17.004Z,7.5
2023-03-22T04:02:19.094Z,9.4
2023-03-22T04:04:22.261Z,8.4
2023-03-22T04:06:22.746Z,7
2023-03-22T04:08:24.728Z,7.9
2023-03-22T04:10:26.713Z,7.9
2023-03-22T04:12:31.943Z,6.5
2023-03-22T04:14:34.627Z,8.4
2023-03-22T04:16:35.945Z,7.8
2023-03-22T04:18:37.888Z,7.9
2023-03-22T04:20:40.123Z,7.6
2023-03-22T04:22:41.655Z,7.8
2023-03-22T04:24:43.548Z,9.4
2023-03-22T04:26:48.832Z,7.6
2023-03-22T04:28:50.609Z,7.3
2023-03-22T04:31:54.988Z,8.4
2023-03-22T04:33:56.979Z,7.5
2023-03-22T04:35:58.945Z,9.1
2023-03-22T04:40:06.132Z,8.1
2023-03-22T04:48:14.054Z,9.3
2023-03-22T04:50:15.828Z,6
2023-03-22T04:54:23.052Z,7.1
2023-03-22T04:58:26.993Z,7.6
2023-03-22T05:06:34.630Z,6.8
2023-03-22T05:08:39.841Z,7.1
2023-03-22T05:10:42.111Z,8.1
2023-03-22T05:12:43.806Z,6
2023-03-22T05:14:45.708Z,6.9
2023-03-22T05:16:47.668Z,5.8
2023-03-22T05:18:49.574Z,7.1
2023-03-22T05:22:56.742Z,5.8
2023-03-22T05:24:58.717Z,5.7
2023-03-22T05:27:00.605Z,6.1
2023-03-22T05:29:29.465Z,5.8
2023-03-22T05:31:31.454Z,4.8
2023-03-22T05:33:33.379Z,5.6
2023-03-22T05:35:38.634Z,5.8
2023-03-22T05:37:40.571Z,5.4
2023-03-22T05:39:42.564Z,5.5
2023-03-22T05:41:45.337Z,4.8
2023-03-22T05:43:46.460Z,4.6
2023-03-22T05:45:48.417Z,6.3
2023-03-22T05:47:50.499Z,5.7
2023-03-22T05:49:55.608Z,6.4
2023-03-22T05:56:01.581Z,5.7
2023-03-22T05:58:03.557Z,4.4
2023-03-22T06:00:05.549Z,4.4
2023-03-22T06:02:07.588Z,4.9
2023-03-22T06:06:14.707Z,3.8
2023-03-22T06:08:16.705Z,4.8
2023-03-22T06:10:18.689Z,3.6
2023-03-22T06:12:20.665Z,4.7
2023-03-22T06:14:22.654Z,3.9
2023-03-22T06:22:33.834Z,4.7
2023-03-22T06:23:36.436Z,4
2023-03-22T06:25:38.384Z,3.8
2023-03-22T06:27:40.381Z,4.8
2023-03-22T06:29:42.355Z,4.2
2023-03-22T06:31:47.555Z,4.1
2023-03-22T06:37:53.516Z,4
2023-03-22T06:46:04.644Z,3.1
2023-03-22T06:48:06.384Z,3.1
2023-03-22T06:52:10.607Z,3.8
2023-03-22T06:56:13.865Z,3.3
2023-03-22T06:58:15.849Z,3.3
2023-03-22T07:02:22.825Z,3.3
2023-03-22T07:04:24.733Z,2.9
2023-03-22T07:06:26.596Z,3.4
2023-03-22T07:08:28.464Z,8.2
2023-03-22T07:10:30.357Z,2.8
2023-03-22T07:12:32.273Z,3.1
2023-03-22T07:18:40.995Z,3.3
2023-03-22T07:19:43.477Z,2.7
2023-03-22T07:36:01.803Z,3.8
2023-03-22T07:38:03.779Z,2.7
2023-03-22T07:40:05.616Z,2.4
2023-03-22T07:42:10.625Z,2.7
2023-03-22T07:44:17.971Z,2.4
2023-03-22T07:46:14.493Z,2.8
2023-03-22T07:48:16.335Z,2.5
2023-03-22T07:50:18.286Z,4.4
2023-03-22T07:52:20.173Z,2.6
2023-03-22T07:54:33.017Z,3.9
2023-03-22T07:56:27.374Z,2.6
2023-03-22T07:58:29.261Z,3.2
2023-03-22T08:00:31.158Z,2.2
2023-03-22T08:02:33.129Z,2.9
2023-03-22T08:04:34.983Z,2.1
2023-03-22T08:06:36.895Z,2.8
2023-03-22T08:08:38.776Z,2.1
2023-03-22T08:10:43.810Z,2.8
2023-03-22T08:12:45.719Z,2.8
2023-03-22T08:14:47.662Z,2.3
2023-03-22T08:15:50.178Z,3.1
2023-03-22T08:17:52.048Z,2.8
2023-03-22T08:19:53.942Z,2.2
2023-03-22T08:34:10.269Z,1.8
2023-03-22T08:36:12.118Z,2.3
2023-03-22T08:40:19.097Z,3
2023-03-22T08:42:20.880Z,2.4
2023-03-22T08:46:24.676Z,3.8
2023-03-22T09:00:48.615Z,3.6
2023-03-22T09:02:42.785Z,2.9
2023-03-22T09:04:44.708Z,3
2023-03-22T09:06:49.715Z,3.4
2023-03-22T09:08:51.691Z,2.9
2023-03-22T09:10:53.548Z,2.6
2023-03-22T09:13:22.099Z,2.6
2023-03-22T09:29:41.724Z,1.9
2023-03-22T09:35:50.611Z,2.7
2023-03-22T09:37:52.419Z,1.9
2023-03-22T09:39:54.259Z,2.1
2023-03-22T09:41:56.118Z,1.9
2023-03-22T09:43:57.996Z,2
2023-03-22T09:45:59.963Z,2.4
2023-03-22T09:48:05.024Z,1.8
2023-03-22T09:50:06.765Z,3.5
2023-03-22T09:52:08.712Z,1.2
2023-03-22T09:54:10.529Z,2.3
2023-03-22T09:56:12.431Z,2
2023-03-22T09:58:14.325Z,2
2023-03-22T10:00:16.192Z,1.8
2023-03-22T10:02:21.295Z,1.5
2023-03-22T10:04:23.119Z,2
2023-03-22T10:07:27.450Z,2.3
2023-03-22T10:09:29.347Z,2.1
2023-03-22T10:11:31.244Z,2.5
2023-03-22T10:13:33.148Z,1.8
2023-03-22T10:15:38.540Z,2.7
2023-03-22T10:17:40.027Z,2.1
2023-03-22T10:19:41.911Z,1.7
2023-03-22T10:25:47.564Z,2.4
2023-03-22T10:27:49.470Z,2.2
2023-03-22T10:33:58.223Z,2.3
2023-03-22T10:36:00.171Z,3
2023-03-22T10:58:28.165Z,3.4
2023-03-22T11:00:30.192Z,2.8
2023-03-22T11:02:32.354Z,2.4
2023-03-22T11:03:34.629Z,3.3
2023-03-22T11:05:36.519Z,2.3
2023-03-22T11:07:38.413Z,3
2023-03-22T11:09:40.275Z,4.2
2023-03-22T11:11:45.284Z,2.1
2023-03-22T11:13:47.155Z,3.1
2023-03-22T11:15:49.065Z,2.9
2023-03-22T11:17:50.953Z,2.7
2023-03-22T11:19:52.881Z,2.7
2023-03-22T11:21:54.725Z,3.1
2023-03-22T11:23:56.734Z,3.4
2023-03-22T11:26:01.804Z,2.4
2023-03-22T11:30:05.559Z,2.7
2023-03-22T11:32:07.667Z,3.9
2023-03-22T11:40:19.162Z,3.4
2023-03-22T11:46:25.215Z,4.1
2023-03-22T11:48:27.378Z,3.1
2023-03-22T11:52:31.084Z,2.4
2023-03-22T11:56:38.193Z,2.7
2023-03-22T11:59:42.800Z,2.9
2023-03-22T12:03:46.887Z,2.6
2023-03-22T12:05:48.814Z,3.4
2023-03-22T12:07:53.873Z,3
2023-03-22T12:09:56.325Z,3
2023-03-22T12:13:59.738Z,1.9
2023-03-22T12:16:01.702Z,1.9
2023-03-22T12:22:11.512Z,2.1
2023-03-22T12:36:27.392Z,1.9
2023-03-22T12:38:29.267Z,1.7
2023-03-22T12:40:31.188Z,1.3
2023-03-22T12:42:35.048Z,2.1
2023-03-22T12:44:35.054Z,1.9
2023-03-22T12:46:37.118Z,2.4
2023-03-22T12:48:39.133Z,1.7
2023-03-22T12:50:44.054Z,2.3
2023-03-22T12:52:46.229Z,1.5
2023-03-22T12:54:47.817Z,2.2
2023-03-22T12:57:16.662Z,2.5
2023-03-22T12:59:18.377Z,2.2
2023-03-22T13:01:20.349Z,2.3
2023-03-22T13:05:27.296Z,2.6
2023-03-22T13:07:29.190Z,2.9
2023-03-22T13:09:31.090Z,2.3
2023-03-22T13:13:34.804Z,2.6
2023-03-22T13:15:41.856Z,2.3
2023-03-22T13:17:41.835Z,2.8
2023-03-22T13:19:43.599Z,2.8
2023-03-22T13:21:45.469Z,2.2
2023-03-22T13:23:47.344Z,2.2
2023-03-22T13:25:49.219Z,2.2
2023-03-22T13:27:51.127Z,2.3
2023-03-22T13:29:52.996Z,2.5
2023-03-22T13:31:58.346Z,2.6
2023-03-22T13:33:59.894Z,1.9
2023-03-22T13:36:01.810Z,3.1
2023-03-22T13:38:03.638Z,2.7
2023-03-22T13:40:05.532Z,2
2023-03-22T13:42:07.451Z,3.6
2023-03-22T13:44:09.308Z,2
2023-03-22T13:46:14.445Z,2.4
2023-03-22T13:48:16.368Z,2.3
2023-03-22T13:50:18.159Z,2.3
2023-03-22T13:51:20.662Z,2.5
2023-03-22T13:59:31.360Z,3.2
2023-03-22T14:05:37.126Z,2.1
2023-03-22T14:07:39.019Z,3
2023-03-22T14:53:34.044Z,3.3
2023-03-22T14:57:41.061Z,4.1
2023-03-22T15:01:45.034Z,4.2
2023-03-22T15:03:46.880Z,4.9
2023-03-22T15:07:52.221Z,4.4
2023-03-22T15:09:57.404Z,4.8
2023-03-22T15:14:01.352Z,4.3
2023-03-22T15:16:03.412Z,4.2
2023-03-22T15:20:07.308Z,5.2
2023-03-22T15:26:16.218Z,5.6
2023-03-22T15:28:18.097Z,4.4
2023-03-22T15:30:20.082Z,4.4
2023-03-22T15:32:22.103Z,4.3
2023-03-22T15:34:24.020Z,3.9
2023-03-22T15:38:37.698Z,4.4
2023-03-22T15:40:33.105Z,4.9
2023-03-22T15:42:35.022Z,5.6
2023-03-22T15:43:37.627Z,5.2
2023-03-22T15:49:43.292Z,5.1
2023-03-22T15:51:48.419Z,5.9
2023-03-22T15:53:50.411Z,4.9
2023-03-22T15:55:52.287Z,4.1
2023-03-22T15:57:54.160Z,5.4
2023-03-22T15:59:56.039Z,5.4
2023-03-22T16:26:27.750Z,5.9
2023-03-22T16:28:29.741Z,6.4
2023-03-22T16:34:38.945Z,5.4
2023-03-22T16:41:11.706Z,4.8
2023-03-22T16:49:22.493Z,4.8
2023-03-22T16:51:24.472Z,5
2023-03-22T16:57:30.111Z,5.7
2023-03-22T17:03:39.102Z,5.7
2023-03-22T17:17:55.814Z,4.8
2023-03-22T17:28:05.753Z,5.2
2023-03-22T17:32:16.681Z,5.8
2023-03-22T17:35:17.262Z,6.3
2023-03-22T17:47:41.076Z,6.2
2023-03-22T18:05:52.603Z,7.5
2023-03-22T18:20:17.636Z,8.8
2023-03-22T18:24:13.095Z,8.3
2023-03-22T18:26:28.349Z,6.8
2023-03-22T18:28:20.034Z,6.3
2023-03-22T18:30:21.890Z,7.4
2023-03-22T18:31:24.481Z,5.8
2023-03-22T18:45:55.509Z,6.9
2023-03-22T18:47:42.619Z,5.5
2023-03-22T18:49:44.497Z,5.8
2023-03-22T18:52:23.397Z,6.4
2023-03-22T19:08:25.763Z,7.2
2023-03-22T19:10:09.851Z,5.9
2023-03-22T19:12:11.770Z,7
2023-03-22T19:14:51.145Z,7.2
2023-03-22T19:20:19.474Z,7.8
2023-03-22T19:22:24.567Z,9.4
2023-03-22T19:24:26.441Z,8.7
2023-03-22T19:27:30.818Z,8.5
2023-03-22T19:31:34.679Z,8.8
2023-03-22T19:35:41.721Z,8.1
2023-03-22T19:37:43.428Z,8.7
2023-03-22T19:51:59.840Z,8.8
2023-03-22T20:00:43.759Z,7.9
2023-03-22T20:22:34.618Z,8.3
2023-03-22T20:25:03.313Z,10.4
2023-03-22T20:27:05.205Z,8.9
2023-03-22T20:29:07.071Z,9
2023-03-22T20:31:12.112Z,8.1
2023-03-22T20:33:14.076Z,9.3
2023-03-22T20:35:15.933Z,8.5
2023-03-22T20:37:17.824Z,8.1
2023-03-22T20:39:19.819Z,8
2023-03-22T20:41:21.663Z,9.2
2023-03-22T20:43:23.593Z,7.3
2023-03-22T20:45:28.572Z,7.8
2023-03-22T20:47:30.474Z,8.2
2023-03-22T20:49:32.336Z,9.1
2023-03-22T20:51:34.200Z,8.5
2023-03-22T20:53:36.207Z,8.8
2023-03-22T20:55:38.162Z,7.2
2023-03-22T20:57:40.068Z,7.5
2023-03-22T20:59:46.597Z,10.1
2023-03-22T21:01:48.596Z,8.7
2023-03-22T21:03:50.572Z,8.9
2023-03-22T21:05:52.461Z,9.4
2023-03-22T21:11:58.235Z,8.9
2023-03-22T21:14:03.392Z,8.8
2023-03-22T21:16:05.397Z,8.1
2023-03-22T21:18:07.273Z,10
2023-03-22T21:23:13.739Z,9.2
2023-03-22T21:27:20.719Z,11.2
2023-03-22T21:31:24.553Z,10.4
2023-03-22T21:33:26.412Z,9.9
2023-03-22T21:35:28.278Z,10.2
2023-03-22T21:37:30.171Z,9.6
2023-03-22T21:39:32.164Z,9.7
2023-03-22T21:41:37.157Z,11
2023-03-22T21:43:39.038Z,10.2
2023-03-22T21:45:41.190Z,8.8
2023-03-22T21:47:42.884Z,8.1
2023-03-22T21:49:44.897Z,8.8
2023-03-22T21:51:46.763Z,7.5
2023-03-22T21:53:48.645Z,7.6
2023-03-22T21:55:53.650Z,8
2023-03-22T21:57:55.507Z,7.4
2023-03-22T21:59:57.390Z,7.4
2023-03-22T22:01:59.252Z,7.2
2023-03-22T22:04:01.147Z,7.7
2023-03-22T22:10:09.882Z,7.7
2023-03-22T22:14:13.735Z,7
2023-03-22T22:15:16.242Z,7.6
2023-03-22T22:25:28.995Z,7.2
2023-03-22T22:27:30.847Z,6.7
2023-03-22T22:29:32.765Z,5.9
2023-03-22T22:37:43.404Z,6
2023-03-22T22:39:45.311Z,5.2
2023-03-22T22:45:51.028Z,6.4
2023-03-22T22:47:52.935Z,5.5
2023-03-22T22:49:57.086Z,5.7
2023-03-22T23:06:16.118Z,5
2023-03-22T23:10:19.980Z,6.5
2023-03-22T23:11:22.474Z,5.3
2023-03-22T23:13:24.359Z,5.1
2023-03-22T23:15:27.452Z,6.2
2023-03-22T23:17:28.096Z,4.9
2023-03-22T23:21:34.972Z,4.4
2023-03-22T23:23:36.858Z,5.7
2023-03-22T23:25:38.826Z,4.3
2023-03-22T23:27:40.657Z,4.7
2023-03-22T23:29:42.533Z,6
2023-03-22T23:31:44.433Z,5.3
2023-03-22T23:35:51.330Z,4.9
2023-03-22T23:43:58.940Z,4.9
2023-03-22T23:46:00.966Z,4.4
2023-03-22T23:48:05.999Z,6
2023-03-22T23:50:07.896Z,5.2
2023-03-22T23:52:09.785Z,3.7
2023-03-22T23:54:11.633Z,4.3
2023-03-22T23:56:13.522Z,5.8
2023-03-22T23:58:15.384Z,5.3
